createdAt,value
2018-07-14T00:00:46.647Z,1019.19
2018-07-14T00:01:46.674Z,1019.16
2018-07-14T00:02:46.698Z,1019.19
2018-07-14T00:03:46.717Z,1019.15
2018-07-14T00:04:46.742Z,1019.14
2018-07-14T00:05:46.767Z,1019.14
2018-07-14T00:06:46.793Z,1019.15
2018-07-14T00:07:46.819Z,1019.19
2018-07-14T00:08:46.848Z,1019.18
2018-07-14T00:09:46.865Z,1019.18
2018-07-14T00:10:46.889Z,1019.14
2018-07-14T00:11:46.915Z,1019.17
2018-07-14T00:12:46.940Z,1019.18
2018-07-14T00:13:46.963Z,1019.19
2018-07-14T00:14:46.987Z,1019.20
2018-07-14T00:15:47.006Z,1019.19
2018-07-14T00:16:47.033Z,1019.17
2018-07-14T00:17:47.062Z,1019.16
2018-07-14T00:18:47.086Z,1019.12
2018-07-14T00:19:47.105Z,1019.14
2018-07-14T00:20:47.131Z,1019.12
2018-07-14T00:21:47.151Z,1019.14
2018-07-14T00:22:47.176Z,1019.10
2018-07-14T00:23:47.205Z,1019.09
2018-07-14T00:24:47.232Z,1019.08
2018-07-14T00:25:47.247Z,1019.10
2018-07-14T00:26:47.272Z,1019.07
2018-07-14T00:27:47.299Z,1019.11
2018-07-14T00:28:47.323Z,1019.09
2018-07-14T00:29:47.354Z,1019.12
2018-07-14T00:30:47.373Z,1019.10
2018-07-14T00:31:47.395Z,1019.13
2018-07-14T00:32:47.419Z,1019.11
2018-07-14T00:33:47.445Z,1019.15
2018-07-14T00:34:47.468Z,1019.17
2018-07-14T00:35:47.527Z,1019.16
2018-07-14T00:36:47.512Z,1019.14
2018-07-14T00:37:47.537Z,1019.14
2018-07-14T00:38:47.563Z,1019.13
2018-07-14T00:39:47.590Z,1019.08
2018-07-14T00:40:47.615Z,1019.09
2018-07-14T00:41:47.634Z,1019.10
2018-07-14T00:42:47.658Z,1019.09
2018-07-14T00:43:47.686Z,1019.05
2018-07-14T00:44:47.709Z,1019.08
2018-07-14T00:45:47.732Z,1019.06
2018-07-14T00:46:47.757Z,1019.05
2018-07-14T00:47:47.777Z,1019.09
2018-07-14T00:48:47.803Z,1019.10
2018-07-14T00:49:47.831Z,1019.09
2018-07-14T00:50:47.853Z,1019.08
2018-07-14T00:51:47.874Z,1019.08
2018-07-14T00:52:47.898Z,1019.09
2018-07-14T00:53:47.921Z,1019.08
2018-07-14T00:54:47.948Z,1019.11
2018-07-14T00:55:47.972Z,1019.14
2018-07-14T00:56:47.998Z,1019.11
2018-07-14T00:57:48.021Z,1019.12
2018-07-14T00:58:48.046Z,1019.13
2018-07-14T00:59:48.064Z,1019.13
2018-07-14T01:00:48.088Z,1019.13
2018-07-14T01:01:48.113Z,1019.13
2018-07-14T01:02:48.140Z,1019.10
2018-07-14T01:03:48.166Z,1019.14
2018-07-14T01:04:48.189Z,1019.11
2018-07-14T01:05:48.209Z,1019.12
2018-07-14T01:06:48.237Z,1019.10
2018-07-14T01:07:48.261Z,1019.09
2018-07-14T01:08:48.287Z,1019.09
2018-07-14T01:09:48.313Z,1019.08
2018-07-14T01:10:48.336Z,1019.10
2018-07-14T01:11:48.356Z,1019.08
2018-07-14T01:12:48.380Z,1019.11
2018-07-14T01:13:48.407Z,1019.08
2018-07-14T01:14:48.435Z,1019.11
2018-07-14T01:15:48.450Z,1019.12
2018-07-14T01:16:48.477Z,1019.13
2018-07-14T01:17:48.591Z,1019.13
2018-07-14T01:18:48.522Z,1019.18
2018-07-14T01:19:48.548Z,1019.18
2018-07-14T01:20:48.577Z,1019.18
2018-07-14T01:21:48.595Z,1019.14
2018-07-14T01:22:48.620Z,1019.15
2018-07-14T01:23:48.651Z,1019.17
2018-07-14T01:24:48.671Z,1019.22
2018-07-14T01:25:48.695Z,1019.21
2018-07-14T01:26:48.723Z,1019.20
2018-07-14T01:27:48.736Z,1019.20
2018-07-14T01:28:48.764Z,1019.20
2018-07-14T01:29:48.789Z,1019.19
2018-07-14T01:30:48.813Z,1019.15
2018-07-14T01:31:48.833Z,1019.11
2018-07-14T01:32:48.861Z,1019.14
2018-07-14T01:33:48.883Z,1019.11
2018-07-14T01:34:48.906Z,1019.12
2018-07-14T01:35:48.935Z,1019.13
2018-07-14T01:36:48.957Z,1019.13
2018-07-14T01:37:48.977Z,1019.13
2018-07-14T01:38:49.000Z,1019.12
2018-07-14T01:39:49.028Z,1019.10
2018-07-14T01:40:49.056Z,1019.09
2018-07-14T01:41:49.079Z,1019.06
2018-07-14T01:42:49.102Z,1019.09
2018-07-14T01:43:49.124Z,1019.10
2018-07-14T01:44:49.148Z,1019.08
2018-07-14T01:45:49.175Z,1019.09
2018-07-14T01:46:49.206Z,1019.08
2018-07-14T01:47:49.219Z,1019.12
2018-07-14T01:48:49.242Z,1019.14
2018-07-14T01:49:49.264Z,1019.17
2018-07-14T01:50:49.288Z,1019.15
2018-07-14T01:51:49.317Z,1019.16
2018-07-14T01:52:49.339Z,1019.16
2018-07-14T01:53:49.363Z,1019.12
2018-07-14T01:54:49.386Z,1019.17
2018-07-14T01:55:49.414Z,1019.10
2018-07-14T01:56:49.444Z,1019.10
2018-07-14T01:57:49.460Z,1019.07
2018-07-14T01:58:49.484Z,1019.08
2018-07-14T01:59:49.506Z,1019.06
2018-07-14T02:00:49.528Z,1019.01
2018-07-14T02:01:49.557Z,1019.02
2018-07-14T02:02:49.581Z,1018.98
2018-07-14T02:03:49.602Z,1019.02
2018-07-14T02:04:49.628Z,1019.04
2018-07-14T02:05:49.654Z,1019.01
2018-07-14T02:06:49.672Z,1019.04
2018-07-14T02:07:49.701Z,1019.03
2018-07-14T02:08:49.726Z,1019.03
2018-07-14T02:09:49.746Z,1019.04
2018-07-14T02:10:49.770Z,1019.03
2018-07-14T02:11:49.798Z,1019.07
2018-07-14T02:12:49.824Z,1019.05
2018-07-14T02:13:49.844Z,1019.05
2018-07-14T02:14:49.869Z,1018.99
2018-07-14T02:15:49.887Z,1019.02
2018-07-14T02:16:49.916Z,1019.00
2018-07-14T02:17:49.940Z,1018.97
2018-07-14T02:18:49.968Z,1018.99
2018-07-14T02:19:49.984Z,1019.02
2018-07-14T02:20:50.018Z,1019.01
2018-07-14T02:21:50.032Z,1019.02
2018-07-14T02:22:50.058Z,1018.99
2018-07-14T02:23:50.087Z,1019.03
2018-07-14T02:24:50.110Z,1019.02
2018-07-14T02:25:50.127Z,1019.06
2018-07-14T02:26:50.153Z,1019.07
2018-07-14T02:27:50.179Z,1019.03
2018-07-14T02:28:50.203Z,1019.03
2018-07-14T02:29:50.230Z,1019.03
2018-07-14T02:30:50.255Z,1019.00
2018-07-14T02:31:50.281Z,1019.03
2018-07-14T02:32:50.300Z,1018.98
2018-07-14T02:33:50.325Z,1018.99
2018-07-14T02:34:50.354Z,1019.01
2018-07-14T02:35:50.368Z,1018.99
2018-07-14T02:36:50.395Z,1018.98
2018-07-14T02:37:50.415Z,1018.98
2018-07-14T02:38:50.440Z,1018.96
2018-07-14T02:39:50.468Z,1018.97
2018-07-14T02:40:50.492Z,1018.96
2018-07-14T02:41:50.514Z,1018.97
2018-07-14T02:42:50.537Z,1018.91
2018-07-14T02:43:50.564Z,1018.95
2018-07-14T02:44:50.590Z,1018.91
2018-07-14T02:45:50.612Z,1018.89
2018-07-14T02:46:50.640Z,1018.91
2018-07-14T02:47:50.661Z,1018.97
2018-07-14T02:48:50.680Z,1018.93
2018-07-14T02:49:50.707Z,1018.96
2018-07-14T02:50:50.732Z,1018.92
2018-07-14T02:51:50.751Z,1018.95
2018-07-14T02:52:50.776Z,1018.95
2018-07-14T02:53:50.800Z,1018.97
2018-07-14T02:54:50.826Z,1018.97
2018-07-14T02:55:50.852Z,1018.95
2018-07-14T02:56:50.878Z,1019.00
2018-07-14T02:57:50.900Z,1018.99
2018-07-14T02:58:50.924Z,1019.02
2018-07-14T02:59:51.027Z,1019.03
2018-07-14T03:00:50.970Z,1019.09
2018-07-14T03:01:50.996Z,1019.13
2018-07-14T03:02:51.022Z,1019.13
2018-07-14T03:03:51.040Z,1019.11
2018-07-14T03:04:51.064Z,1019.10
2018-07-14T03:05:51.090Z,1019.07
2018-07-14T03:06:51.114Z,1019.10
2018-07-14T03:07:51.141Z,1019.08
2018-07-14T03:08:51.165Z,1019.07
2018-07-14T03:09:51.187Z,1019.06
2018-07-14T03:10:51.211Z,1019.05
2018-07-14T03:11:51.230Z,1019.02
2018-07-14T03:12:51.272Z,1019.06
2018-07-14T03:13:51.284Z,1019.08
2018-07-14T03:14:51.309Z,1019.05
2018-07-14T03:15:51.328Z,1019.06
2018-07-14T03:16:51.352Z,1019.09
2018-07-14T03:17:51.375Z,1019.08
2018-07-14T03:18:51.399Z,1019.06
2018-07-14T03:19:51.427Z,1019.07
2018-07-14T03:20:51.450Z,1019.09
2018-07-14T03:21:51.471Z,1019.05
2018-07-14T03:22:51.494Z,1019.09
2018-07-14T03:23:51.522Z,1019.05
2018-07-14T03:24:51.546Z,1019.05
2018-07-14T03:25:51.571Z,1019.05
2018-07-14T03:26:51.597Z,1019.04
2018-07-14T03:27:51.615Z,1019.07
2018-07-14T03:28:51.639Z,1019.06
2018-07-14T03:29:51.666Z,1019.07
2018-07-14T03:30:51.693Z,1019.05
2018-07-14T03:31:51.716Z,1019.09
2018-07-14T03:32:51.731Z,1019.07
2018-07-14T03:33:51.761Z,1019.07
2018-07-14T03:34:51.789Z,1019.10
2018-07-14T03:35:51.812Z,1019.08
2018-07-14T03:36:51.843Z,1019.06
2018-07-14T03:37:51.858Z,1019.05
2018-07-14T03:38:51.880Z,1019.04
2018-07-14T03:39:51.908Z,1019.04
2018-07-14T03:40:51.934Z,1019.07
2018-07-14T03:41:52.017Z,1019.06
2018-07-14T03:42:51.983Z,1019.03
2018-07-14T03:43:51.997Z,1019.06
2018-07-14T03:44:52.021Z,1019.08
2018-07-14T03:45:52.052Z,1019.06
2018-07-14T03:46:52.075Z,1019.03
2018-07-14T03:47:52.095Z,1019.03
2018-07-14T03:48:52.120Z,1019.02
2018-07-14T03:49:52.142Z,1019.04
2018-07-14T03:50:52.165Z,1019.05
2018-07-14T03:51:52.193Z,1019.05
2018-07-14T03:52:52.217Z,1019.07
2018-07-14T03:53:52.242Z,1019.03
2018-07-14T03:54:52.266Z,1019.06
2018-07-14T03:55:52.289Z,1019.10
2018-07-14T03:56:52.358Z,1019.05
2018-07-14T03:57:52.340Z,1019.10
2018-07-14T03:58:52.364Z,1019.06
2018-07-14T03:59:52.383Z,1019.06
2018-07-14T04:00:52.410Z,1019.10
2018-07-14T04:01:52.434Z,1019.13
2018-07-14T04:02:52.456Z,1019.09
2018-07-14T04:03:52.477Z,1019.07
2018-07-14T04:04:52.502Z,1019.09
2018-07-14T04:05:52.527Z,1019.07
2018-07-14T04:06:52.552Z,1019.08
2018-07-14T04:07:52.578Z,1019.10
2018-07-14T04:08:52.606Z,1019.12
2018-07-14T04:09:52.622Z,1019.12
2018-07-14T04:10:52.647Z,1019.12
2018-07-14T04:11:52.677Z,1019.12
2018-07-14T04:12:52.698Z,1019.12
2018-07-14T04:13:52.724Z,1019.12
2018-07-14T04:14:52.751Z,1019.10
2018-07-14T04:15:52.766Z,1019.11
2018-07-14T04:16:52.792Z,1019.10
2018-07-14T04:17:52.822Z,1019.10
2018-07-14T04:18:52.841Z,1019.08
2018-07-14T04:19:52.860Z,1019.06
2018-07-14T04:20:52.886Z,1019.07
2018-07-14T04:21:52.911Z,1019.07
2018-07-14T04:22:52.936Z,1019.06
2018-07-14T04:23:52.964Z,1019.05
2018-07-14T04:24:52.987Z,1019.07
2018-07-14T04:25:53.008Z,1019.09
2018-07-14T04:26:53.036Z,1019.07
2018-07-14T04:27:53.059Z,1019.10
2018-07-14T04:28:53.085Z,1019.07
2018-07-14T04:29:53.108Z,1019.11
2018-07-14T04:30:53.130Z,1019.10
2018-07-14T04:31:53.165Z,1019.10
2018-07-14T04:32:53.177Z,1019.11
2018-07-14T04:33:53.251Z,1019.09
2018-07-14T04:34:53.230Z,1019.14
2018-07-14T04:35:53.251Z,1019.10
2018-07-14T04:36:53.276Z,1019.09
2018-07-14T04:37:53.296Z,1019.10
2018-07-14T04:38:53.320Z,1019.12
2018-07-14T04:39:53.344Z,1019.11
2018-07-14T04:40:53.373Z,1019.13
2018-07-14T04:41:53.397Z,1019.14
2018-07-14T04:42:53.415Z,1019.16
2018-07-14T04:43:53.443Z,1019.14
2018-07-14T04:44:53.467Z,1019.11
2018-07-14T04:45:53.492Z,1019.14
2018-07-14T04:46:53.521Z,1019.12
2018-07-14T04:47:53.537Z,1019.14
2018-07-14T04:48:53.561Z,1019.16
2018-07-14T04:49:53.588Z,1019.17
2018-07-14T04:50:53.614Z,1019.19
2018-07-14T04:51:53.634Z,1019.18
2018-07-14T04:52:53.657Z,1019.22
2018-07-14T04:53:53.687Z,1019.21
2018-07-14T04:54:53.712Z,1019.20
2018-07-14T04:55:53.733Z,1019.21
2018-07-14T04:56:53.761Z,1019.18
2018-07-14T04:57:53.780Z,1019.15
2018-07-14T04:58:53.802Z,1019.18
2018-07-14T04:59:53.830Z,1019.18
2018-07-14T05:00:53.857Z,1019.16
2018-07-14T05:01:53.879Z,1019.14
2018-07-14T05:02:53.903Z,1019.19
2018-07-14T05:03:53.922Z,1019.17
2018-07-14T05:04:53.947Z,1019.19
2018-07-14T05:05:53.979Z,1019.22
2018-07-14T05:06:54.002Z,1019.20
2018-07-14T05:07:54.021Z,1019.25
2018-07-14T05:08:54.046Z,1019.24
2018-07-14T05:09:54.069Z,1019.23
2018-07-14T05:10:54.091Z,1019.27
2018-07-14T05:11:54.120Z,1019.25
2018-07-14T05:12:54.143Z,1019.24
2018-07-14T05:13:54.168Z,1019.26
2018-07-14T05:14:54.191Z,1019.25
2018-07-14T05:15:54.214Z,1019.26
2018-07-14T05:16:54.237Z,1019.25
2018-07-14T05:17:54.264Z,1019.27
2018-07-14T05:18:54.291Z,1019.22
2018-07-14T05:19:54.314Z,1019.23
2018-07-14T05:20:54.332Z,1019.22
2018-07-14T05:21:54.359Z,1019.24
2018-07-14T05:22:54.387Z,1019.19
2018-07-14T05:23:54.411Z,1019.19
2018-07-14T05:24:54.436Z,1019.19
2018-07-14T05:25:54.461Z,1019.20
2018-07-14T05:26:54.481Z,1019.25
2018-07-14T05:27:54.505Z,1019.26
2018-07-14T05:28:54.537Z,1019.27
2018-07-14T05:29:54.559Z,1019.26
2018-07-14T05:30:54.577Z,1019.25
2018-07-14T05:31:54.603Z,1019.26
2018-07-14T05:32:54.625Z,1019.26
2018-07-14T05:33:54.649Z,1019.28
2018-07-14T05:34:54.678Z,1019.27
2018-07-14T05:35:54.702Z,1019.27
2018-07-14T05:36:54.725Z,1019.26
2018-07-14T05:37:54.749Z,1019.26
2018-07-14T05:38:54.777Z,1019.26
2018-07-14T05:39:54.802Z,1019.30
2018-07-14T05:40:54.824Z,1019.30
2018-07-14T05:41:54.851Z,1019.31
2018-07-14T05:42:54.873Z,1019.32
2018-07-14T05:43:54.937Z,1019.32
2018-07-14T05:44:54.923Z,1019.33
2018-07-14T05:45:54.946Z,1019.32
2018-07-14T05:46:54.967Z,1019.33
2018-07-14T05:47:54.993Z,1019.33
2018-07-14T05:48:55.022Z,1019.35
2018-07-14T05:49:55.040Z,1019.37
2018-07-14T05:50:55.071Z,1019.37
2018-07-14T05:51:55.135Z,1019.38
2018-07-14T05:52:55.111Z,1019.39
2018-07-14T05:53:55.139Z,1019.40
2018-07-14T05:54:55.170Z,1019.42
2018-07-14T05:55:55.191Z,1019.43
2018-07-14T05:56:55.216Z,1019.41
2018-07-14T05:57:55.240Z,1019.45
2018-07-14T05:58:55.262Z,1019.45
2018-07-14T05:59:55.285Z,1019.45
2018-07-14T06:00:55.313Z,1019.45
2018-07-14T06:01:55.339Z,1019.41
2018-07-14T06:02:55.361Z,1019.44
2018-07-14T06:03:55.386Z,1019.42
2018-07-14T06:04:55.404Z,1019.47
2018-07-14T06:05:55.430Z,1019.45
2018-07-14T06:06:55.463Z,1019.43
2018-07-14T06:07:55.482Z,1019.44
2018-07-14T06:08:55.506Z,1019.41
2018-07-14T06:09:55.531Z,1019.41
2018-07-14T06:10:55.561Z,1019.45
2018-07-14T06:11:55.582Z,1019.46
2018-07-14T06:12:55.607Z,1019.48
2018-07-14T06:13:55.631Z,1019.46
2018-07-14T06:14:55.652Z,1019.49
2018-07-14T06:15:55.679Z,1019.51
2018-07-14T06:16:55.707Z,1019.50
2018-07-14T06:17:55.731Z,1019.48
2018-07-14T06:18:55.754Z,1019.47
2018-07-14T06:19:55.776Z,1019.51
2018-07-14T06:20:55.799Z,1019.46
2018-07-14T06:21:55.825Z,1019.45
2018-07-14T06:22:55.853Z,1019.47
2018-07-14T06:23:55.878Z,1019.46
2018-07-14T06:24:55.901Z,1019.49
2018-07-14T06:25:55.924Z,1019.51
2018-07-14T06:26:55.953Z,1019.49
2018-07-14T06:27:55.977Z,1019.49
2018-07-14T06:28:56.000Z,1019.52
2018-07-14T06:29:56.026Z,1019.52
2018-07-14T06:30:56.049Z,1019.50
2018-07-14T06:31:56.082Z,1019.53
2018-07-14T06:32:56.107Z,1019.53
2018-07-14T06:33:56.125Z,1019.53
2018-07-14T06:34:56.144Z,1019.54
2018-07-14T06:35:56.170Z,1019.59
2018-07-14T06:36:56.201Z,1019.58
2018-07-14T06:37:56.222Z,1019.60
2018-07-14T06:38:56.254Z,1019.60
2018-07-14T06:39:56.276Z,1019.61
2018-07-14T06:40:56.294Z,1019.63
2018-07-14T06:41:56.320Z,1019.62
2018-07-14T06:42:56.350Z,1019.66
2018-07-14T06:43:56.372Z,1019.66
2018-07-14T06:44:56.401Z,1019.61
2018-07-14T06:45:56.425Z,1019.64
2018-07-14T06:46:56.450Z,1019.62
2018-07-14T06:47:56.471Z,1019.65
2018-07-14T06:48:56.512Z,1019.64
2018-07-14T06:49:56.526Z,1019.60
2018-07-14T06:50:56.551Z,1019.64
2018-07-14T06:51:56.571Z,1019.68
2018-07-14T06:52:56.595Z,1019.67
2018-07-14T06:53:56.620Z,1019.65
2018-07-14T06:54:56.650Z,1019.71
2018-07-14T06:55:56.674Z,1019.66
2018-07-14T06:56:56.697Z,1019.71
2018-07-14T06:57:56.721Z,1019.72
2018-07-14T06:58:56.750Z,1019.71
2018-07-14T06:59:56.777Z,1019.73
2018-07-14T07:00:56.798Z,1019.74
2018-07-14T07:01:56.824Z,1019.74
2018-07-14T07:02:56.848Z,1019.73
2018-07-14T07:03:56.868Z,1019.76
2018-07-14T07:04:56.898Z,1019.75
2018-07-14T07:05:56.923Z,1019.78
2018-07-14T07:06:56.945Z,1019.78
2018-07-14T07:07:56.968Z,1019.82
2018-07-14T07:08:56.995Z,1019.80
2018-07-14T07:09:57.020Z,1019.77
2018-07-14T07:10:57.050Z,1019.79
2018-07-14T07:11:57.075Z,1019.77
2018-07-14T07:12:57.096Z,1019.74
2018-07-14T07:13:57.123Z,1019.73
2018-07-14T07:14:57.148Z,1019.70
2018-07-14T07:15:57.171Z,1019.75
2018-07-14T07:16:57.199Z,1019.76
2018-07-14T07:17:57.223Z,1019.75
2018-07-14T07:18:57.246Z,1019.75
2018-07-14T07:19:57.273Z,1019.75
2018-07-14T07:20:57.297Z,1019.77
2018-07-14T07:21:57.323Z,1019.76
2018-07-14T07:22:57.344Z,1019.71
2018-07-14T07:23:57.367Z,1019.79
2018-07-14T07:24:57.394Z,1019.75
2018-07-14T07:25:57.423Z,1019.78
2018-07-14T07:26:57.450Z,1019.75
2018-07-14T07:27:57.474Z,1019.76
2018-07-14T07:28:57.494Z,1019.78
2018-07-14T07:29:57.518Z,1019.75
2018-07-14T07:30:57.548Z,1019.75
2018-07-14T07:31:57.571Z,1019.80
2018-07-14T07:32:57.597Z,1019.79
2018-07-14T07:33:57.688Z,1019.80
2018-07-14T07:34:57.663Z,1019.77
2018-07-14T07:35:57.670Z,1019.79
2018-07-14T07:36:57.698Z,1019.78
2018-07-14T07:37:57.723Z,1019.82
2018-07-14T07:38:57.745Z,1019.85
2018-07-14T07:39:57.768Z,1019.85
2018-07-14T07:40:57.794Z,1019.83
2018-07-14T07:41:57.824Z,1019.81
2018-07-14T07:42:57.848Z,1019.82
2018-07-14T07:43:57.871Z,1019.85
2018-07-14T07:44:57.894Z,1019.85
2018-07-14T07:45:57.919Z,1019.86
2018-07-14T07:46:57.951Z,1019.86
2018-07-14T07:47:57.973Z,1019.89
2018-07-14T07:48:57.998Z,1019.89
2018-07-14T07:49:58.023Z,1019.89
2018-07-14T07:50:58.044Z,1019.88
2018-07-14T07:51:58.068Z,1019.84
2018-07-14T07:52:58.098Z,1019.82
2018-07-14T07:53:58.128Z,1019.84
2018-07-14T07:54:58.147Z,1019.81
2018-07-14T07:55:58.169Z,1019.83
2018-07-14T07:56:58.196Z,1019.82
2018-07-14T07:57:58.222Z,1019.81
2018-07-14T07:58:58.303Z,1019.84
2018-07-14T07:59:58.278Z,1019.82
2018-07-14T08:00:58.295Z,1019.86
2018-07-14T08:01:58.324Z,1019.81
2018-07-14T08:02:58.351Z,1019.83
2018-07-14T08:03:58.374Z,1019.84
2018-07-14T08:04:58.403Z,1019.89
2018-07-14T08:05:58.428Z,1019.85
2018-07-14T08:06:58.455Z,1019.84
2018-07-14T08:07:58.475Z,1019.87
2018-07-14T08:08:58.503Z,1019.83
2018-07-14T08:09:58.529Z,1019.87
2018-07-14T08:10:58.549Z,1019.83
2018-07-14T08:11:58.575Z,1019.85
2018-07-14T08:12:58.599Z,1019.83
2018-07-14T08:13:58.625Z,1019.82
2018-07-14T08:14:58.654Z,1019.86
2018-07-14T08:15:58.706Z,1019.83
2018-07-14T08:16:58.703Z,1019.83
2018-07-14T08:17:58.727Z,1019.82
2018-07-14T08:18:58.756Z,1019.84
2018-07-14T08:19:58.781Z,1019.83
2018-07-14T08:20:58.804Z,1019.82
2018-07-14T08:21:58.831Z,1019.82
2018-07-14T08:22:58.911Z,1019.80
2018-07-14T08:23:58.875Z,1019.81
2018-07-14T08:24:58.908Z,1019.82
2018-07-14T08:25:58.932Z,1019.83
2018-07-14T08:26:58.958Z,1019.83
2018-07-14T08:27:58.980Z,1019.83
2018-07-14T08:28:59.002Z,1019.84
2018-07-14T08:29:59.028Z,1019.78
2018-07-14T08:30:59.058Z,1019.77
2018-07-14T08:31:59.083Z,1019.79
2018-07-14T08:32:59.107Z,1019.80
2018-07-14T08:33:59.131Z,1019.78
2018-07-14T08:34:59.161Z,1019.77
2018-07-14T08:35:59.186Z,1019.78
2018-07-14T08:36:59.210Z,1019.77
2018-07-14T08:37:59.240Z,1019.77
2018-07-14T08:38:59.257Z,1019.82
2018-07-14T08:39:59.281Z,1019.86
2018-07-14T08:40:59.311Z,1019.81
2018-07-14T08:41:59.337Z,1019.84
2018-07-14T08:42:59.357Z,1019.83
2018-07-14T08:43:59.383Z,1019.81
2018-07-14T08:44:59.408Z,1019.78
2018-07-14T08:45:59.439Z,1019.80
2018-07-14T08:46:59.471Z,1019.80
2018-07-14T08:47:59.489Z,1019.82
2018-07-14T08:48:59.514Z,1019.80
2018-07-14T08:49:59.543Z,1019.80
2018-07-14T08:50:59.565Z,1019.81
2018-07-14T08:51:59.591Z,1019.76
2018-07-14T08:52:59.618Z,1019.77
2018-07-14T08:53:59.644Z,1019.73
2018-07-14T08:54:59.665Z,1019.68
2018-07-14T08:55:59.690Z,1019.70
2018-07-14T08:56:59.720Z,1019.72
2018-07-14T08:57:59.746Z,1019.69
2018-07-14T08:58:59.767Z,1019.69
2018-07-14T08:59:59.792Z,1019.71
2018-07-14T09:00:59.821Z,1019.70
2018-07-14T09:01:59.842Z,1019.69
2018-07-14T09:02:59.875Z,1019.73
2018-07-14T09:03:59.897Z,1019.70
2018-07-14T09:04:59.925Z,1019.69
2018-07-14T09:05:59.945Z,1019.72
2018-07-14T09:06:59.977Z,1019.70
2018-07-14T09:08:00.001Z,1019.72
2018-07-14T09:09:00.027Z,1019.70
2018-07-14T09:10:00.054Z,1019.70
2018-07-14T09:11:00.075Z,1019.68
2018-07-14T09:12:00.097Z,1019.65
2018-07-14T09:13:00.129Z,1019.67
2018-07-14T09:14:00.153Z,1019.65
2018-07-14T09:15:00.176Z,1019.66
2018-07-14T09:16:00.201Z,1019.62
2018-07-14T09:17:00.230Z,1019.63
2018-07-14T09:18:00.258Z,1019.64
2018-07-14T09:19:00.287Z,1019.66
2018-07-14T09:20:00.307Z,1019.65
2018-07-14T09:21:00.329Z,1019.66
2018-07-14T09:22:00.356Z,1019.66
2018-07-14T09:23:00.385Z,1019.69
2018-07-14T09:24:00.410Z,1019.69
2018-07-14T09:25:00.439Z,1019.67
2018-07-14T09:26:00.470Z,1019.69
2018-07-14T09:27:00.486Z,1019.68
2018-07-14T09:28:00.513Z,1019.67
2018-07-14T09:29:00.536Z,1019.67
2018-07-14T09:30:00.562Z,1019.60
2018-07-14T09:31:00.591Z,1019.60
2018-07-14T09:32:00.617Z,1019.58
2018-07-14T09:33:00.641Z,1019.59
2018-07-14T09:34:00.667Z,1019.60
2018-07-14T09:35:00.692Z,1019.66
2018-07-14T09:36:00.716Z,1019.57
2018-07-14T09:37:00.744Z,1019.62
2018-07-14T09:38:00.841Z,1019.64
2018-07-14T09:39:00.800Z,1019.62
2018-07-14T09:40:00.818Z,1019.63
2018-07-14T09:41:00.842Z,1019.60
2018-07-14T09:42:00.869Z,1019.62
2018-07-14T09:43:00.900Z,1019.63
2018-07-14T09:44:00.984Z,1019.57
2018-07-14T09:45:00.950Z,1019.59
2018-07-14T09:46:00.972Z,1019.59
2018-07-14T09:47:01.007Z,1019.60
2018-07-14T09:48:01.026Z,1019.55
2018-07-14T09:49:01.054Z,1019.62
2018-07-14T09:50:01.085Z,1019.58
2018-07-14T09:51:01.108Z,1019.58
2018-07-14T09:52:01.129Z,1019.58
2018-07-14T09:53:01.155Z,1019.66
2018-07-14T09:54:01.184Z,1019.59
2018-07-14T09:55:01.210Z,1019.60
2018-07-14T09:56:01.231Z,1019.57
2018-07-14T09:57:01.258Z,1019.61
2018-07-14T09:58:01.286Z,1019.59
2018-07-14T09:59:01.312Z,1019.63
2018-07-14T10:00:01.341Z,1019.65
2018-07-14T10:01:01.360Z,1019.66
2018-07-14T10:02:01.388Z,1019.68
2018-07-14T10:03:01.426Z,1019.66
2018-07-14T10:04:01.443Z,1019.67
2018-07-14T10:05:01.467Z,1019.68
2018-07-14T10:06:01.513Z,1019.67
2018-07-14T10:07:01.516Z,1019.63
2018-07-14T10:08:01.546Z,1019.66
2018-07-14T10:09:01.573Z,1019.68
2018-07-14T10:10:01.613Z,1019.64
2018-07-14T10:11:01.625Z,1019.65
2018-07-14T10:12:01.647Z,1019.62
2018-07-14T10:13:01.715Z,1019.62
2018-07-14T10:14:01.696Z,1019.64
2018-07-14T10:15:01.748Z,1019.67
2018-07-14T10:16:01.754Z,1019.62
2018-07-14T10:17:01.773Z,1019.61
2018-07-14T10:18:01.805Z,1019.61
2018-07-14T10:19:01.830Z,1019.59
2018-07-14T10:20:01.858Z,1019.55
2018-07-14T10:21:01.884Z,1019.53
2018-07-14T10:22:01.910Z,1019.48
2018-07-14T10:23:01.933Z,1019.55
2018-07-14T10:24:01.956Z,1019.54
2018-07-14T10:25:02.067Z,1019.54
2018-07-14T10:26:02.012Z,1019.49
2018-07-14T10:27:02.034Z,1019.50
2018-07-14T10:28:02.065Z,1019.55
2018-07-14T10:29:02.117Z,1019.55
2018-07-14T10:30:02.120Z,1019.56
2018-07-14T10:31:02.143Z,1019.54
2018-07-14T10:32:02.168Z,1019.53
2018-07-14T10:33:02.190Z,1019.55
2018-07-14T10:34:02.236Z,1019.57
2018-07-14T10:35:02.245Z,1019.60
2018-07-14T10:36:02.271Z,1019.58
2018-07-14T10:37:02.298Z,1019.58
2018-07-14T10:38:02.324Z,1019.58
2018-07-14T10:39:02.348Z,1019.59
2018-07-14T10:40:02.372Z,1019.58
2018-07-14T10:41:02.400Z,1019.59
2018-07-14T10:42:02.496Z,1019.61
2018-07-14T10:43:02.449Z,1019.64
2018-07-14T10:44:02.476Z,1019.68
2018-07-14T10:45:02.504Z,1019.67
2018-07-14T10:46:02.530Z,1019.64
2018-07-14T10:47:02.560Z,1019.62
2018-07-14T10:48:02.584Z,1019.64
2018-07-14T10:49:02.606Z,1019.58
2018-07-14T10:50:02.637Z,1019.58
2018-07-14T10:51:02.670Z,1019.63
2018-07-14T10:52:02.691Z,1019.61
2018-07-14T10:53:02.713Z,1019.58
2018-07-14T10:54:02.773Z,1019.61
2018-07-14T10:55:02.789Z,1019.61
2018-07-14T10:56:02.788Z,1019.60
2018-07-14T10:57:02.820Z,1019.61
2018-07-14T10:58:02.852Z,1019.59
2018-07-14T10:59:02.868Z,1019.58
2018-07-14T11:00:02.894Z,1019.59
2018-07-14T11:01:02.918Z,1019.59
2018-07-14T11:02:02.946Z,1019.57
2018-07-14T11:03:02.976Z,1019.59
2018-07-14T11:04:03.000Z,1019.57
2018-07-14T11:05:03.022Z,1019.59
2018-07-14T11:06:03.050Z,1019.54
2018-07-14T11:07:03.080Z,1019.53
2018-07-14T11:08:03.105Z,1019.52
2018-07-14T11:09:03.135Z,1019.47
2018-07-14T11:10:03.161Z,1019.46
2018-07-14T11:11:03.184Z,1019.50
2018-07-14T11:12:03.258Z,1019.50
2018-07-14T11:13:03.242Z,1019.50
2018-07-14T11:14:03.263Z,1019.50
2018-07-14T11:15:03.286Z,1019.50
2018-07-14T11:16:03.314Z,1019.49
2018-07-14T11:17:03.340Z,1019.50
2018-07-14T11:18:03.371Z,1019.48
2018-07-14T11:19:03.397Z,1019.54
2018-07-14T11:20:03.422Z,1019.45
2018-07-14T11:21:03.445Z,1019.45
2018-07-14T11:22:03.475Z,1019.43
2018-07-14T11:23:03.503Z,1019.44
2018-07-14T11:24:03.528Z,1019.45
2018-07-14T11:25:03.552Z,1019.44
2018-07-14T11:26:03.579Z,1019.43
2018-07-14T11:27:03.638Z,1019.48
2018-07-14T11:28:03.628Z,1019.43
2018-07-14T11:29:03.658Z,1019.46
2018-07-14T11:30:03.685Z,1019.43
2018-07-14T11:31:03.709Z,1019.41
2018-07-14T11:32:03.735Z,1019.42
2018-07-14T11:33:03.759Z,1019.44
2018-07-14T11:34:03.786Z,1019.41
2018-07-14T11:35:03.856Z,1019.44
2018-07-14T11:36:03.841Z,1019.42
2018-07-14T11:37:03.869Z,1019.42
2018-07-14T11:38:03.895Z,1019.43
2018-07-14T11:39:03.917Z,1019.40
2018-07-14T11:40:03.942Z,1019.40
2018-07-14T11:41:03.972Z,1019.39
2018-07-14T11:42:04.040Z,1019.37
2018-07-14T11:43:04.036Z,1019.37
2018-07-14T11:44:04.055Z,1019.36
2018-07-14T11:45:04.073Z,1019.34
2018-07-14T11:46:04.103Z,1019.40
2018-07-14T11:47:04.134Z,1019.37
2018-07-14T11:48:04.158Z,1019.37
2018-07-14T11:49:04.187Z,1019.36
2018-07-14T11:50:04.215Z,1019.35
2018-07-14T11:51:04.235Z,1019.32
2018-07-14T11:52:04.262Z,1019.31
2018-07-14T11:53:04.292Z,1019.29
2018-07-14T11:54:04.320Z,1019.32
2018-07-14T11:55:04.342Z,1019.28
2018-07-14T11:56:04.369Z,1019.24
2018-07-14T11:57:04.391Z,1019.27
2018-07-14T11:58:04.417Z,1019.28
2018-07-14T11:59:04.449Z,1019.28
2018-07-14T12:00:04.475Z,1019.26
2018-07-14T12:01:04.500Z,1019.23
2018-07-14T12:02:04.543Z,1019.26
2018-07-14T12:03:04.557Z,1019.21
2018-07-14T12:04:04.584Z,1019.15
2018-07-14T12:05:04.648Z,1019.18
2018-07-14T12:06:04.634Z,1019.17